sensor_id;sensor_type;location;lat;lon;timestamp;P1;durP1;ratioP1;P2;durP2;ratioP2
56511;SDS011;42408;53.238;5.686;2023-03-23T00:02:31;8.02;;;4.35;;
56511;SDS011;42408;53.238;5.686;2023-03-23T00:05:03;9.13;;;5.07;;
56511;SDS011;42408;53.238;5.686;2023-03-23T00:07:32;8.65;;;5.70;;
56511;SDS011;42408;53.238;5.686;2023-03-23T00:09:58;10.80;;;6.45;;
56511;SDS011;42408;53.238;5.686;2023-03-23T00:12:25;11.90;;;8.37;;
56511;SDS011;42408;53.238;5.686;2023-03-23T00:15:01;12.10;;;9.00;;
56511;SDS011;42408;53.238;5.686;2023-03-23T00:17:33;13.88;;;10.63;;
56511;SDS011;42408;53.238;5.686;2023-03-23T00:19:59;18.10;;;12.48;;
56511;SDS011;42408;53.238;5.686;2023-03-23T00:22:26;20.45;;;14.05;;
56511;SDS011;42408;53.238;5.686;2023-03-23T00:24:53;17.85;;;13.18;;
56511;SDS011;42408;53.238;5.686;2023-03-23T00:27:19;18.57;;;14.87;;
56511;SDS011;42408;53.238;5.686;2023-03-23T00:29:49;19.08;;;15.35;;
56511;SDS011;42408;53.238;5.686;2023-03-23T00:32:18;19.73;;;15.27;;
56511;SDS011;42408;53.238;5.686;2023-03-23T00:34:55;22.55;;;16.02;;
56511;SDS011;42408;53.238;5.686;2023-03-23T00:37:24;23.35;;;16.88;;
56511;SDS011;42408;53.238;5.686;2023-03-23T00:39:50;23.67;;;16.77;;
56511;SDS011;42408;53.238;5.686;2023-03-23T00:42:16;23.27;;;16.95;;
56511;SDS011;42408;53.238;5.686;2023-03-23T00:44:43;26.27;;;17.63;;
56511;SDS011;42408;53.238;5.686;2023-03-23T00:47:09;23.20;;;16.20;;
56511;SDS011;42408;53.238;5.686;2023-03-23T00:49:36;24.25;;;17.10;;
56511;SDS011;42408;53.238;5.686;2023-03-23T00:52:03;26.40;;;17.88;;
56511;SDS011;42408;53.238;5.686;2023-03-23T00:54:30;26.70;;;19.05;;
56511;SDS011;42408;53.238;5.686;2023-03-23T00:56:56;28.40;;;20.20;;
56511;SDS011;42408;53.238;5.686;2023-03-23T00:59:21;27.80;;;19.70;;
56511;SDS011;42408;53.238;5.686;2023-03-23T01:01:48;30.10;;;21.03;;
56511;SDS011;42408;53.238;5.686;2023-03-23T01:04:14;32.85;;;21.73;;
56511;SDS011;42408;53.238;5.686;2023-03-23T01:06:41;29.48;;;22.55;;
56511;SDS011;42408;53.238;5.686;2023-03-23T01:09:12;30.27;;;21.63;;
56511;SDS011;42408;53.238;5.686;2023-03-23T01:11:42;29.15;;;20.67;;
56511;SDS011;42408;53.238;5.686;2023-03-23T01:16:34;23.67;;;18.35;;
56511;SDS011;42408;53.238;5.686;2023-03-23T01:19:00;25.10;;;17.67;;
56511;SDS011;42408;53.238;5.686;2023-03-23T01:21:26;24.47;;;16.27;;
56511;SDS011;42408;53.238;5.686;2023-03-23T01:23:51;20.57;;;15.33;;
56511;SDS011;42408;53.238;5.686;2023-03-23T01:26:18;21.47;;;15.00;;
56511;SDS011;42408;53.238;5.686;2023-03-23T01:28:46;25.30;;;17.45;;
56511;SDS011;42408;53.238;5.686;2023-03-23T01:31:16;21.30;;;14.77;;
56511;SDS011;42408;53.238;5.686;2023-03-23T01:33:44;23.33;;;17.08;;
56511;SDS011;42408;53.238;5.686;2023-03-23T01:36:11;24.10;;;17.52;;
56511;SDS011;42408;53.238;5.686;2023-03-23T01:38:39;23.80;;;16.25;;
56511;SDS011;42408;53.238;5.686;2023-03-23T01:43:31;22.42;;;16.33;;
56511;SDS011;42408;53.238;5.686;2023-03-23T01:45:57;24.07;;;15.77;;
56511;SDS011;42408;53.238;5.686;2023-03-23T01:51:03;22.52;;;14.48;;
56511;SDS011;42408;53.238;5.686;2023-03-23T01:53:35;20.38;;;14.77;;
56511;SDS011;42408;53.238;5.686;2023-03-23T01:56:05;20.48;;;13.65;;
56511;SDS011;42408;53.238;5.686;2023-03-23T01:58:34;18.50;;;14.15;;
56511;SDS011;42408;53.238;5.686;2023-03-23T02:01:03;19.25;;;12.65;;
56511;SDS011;42408;53.238;5.686;2023-03-23T02:03:32;18.75;;;11.60;;
56511;SDS011;42408;53.238;5.686;2023-03-23T02:05:59;21.80;;;12.00;;
56511;SDS011;42408;53.238;5.686;2023-03-23T02:08:28;15.47;;;10.63;;
56511;SDS011;42408;53.238;5.686;2023-03-23T02:10:57;14.55;;;9.15;;
56511;SDS011;42408;53.238;5.686;2023-03-23T02:13:24;16.23;;;10.30;;
56511;SDS011;42408;53.238;5.686;2023-03-23T02:21:38;16.17;;;10.25;;
56511;SDS011;42408;53.238;5.686;2023-03-23T02:24:02;15.45;;;9.57;;
56511;SDS011;42408;53.238;5.686;2023-03-23T02:34:50;15.50;;;9.00;;
56511;SDS011;42408;53.238;5.686;2023-03-23T02:40:24;12.85;;;8.02;;
56511;SDS011;42408;53.238;5.686;2023-03-23T02:42:55;12.95;;;7.70;;
56511;SDS011;42408;53.238;5.686;2023-03-23T02:45:24;13.77;;;7.93;;
56511;SDS011;42408;53.238;5.686;2023-03-23T02:47:53;14.50;;;7.15;;
56511;SDS011;42408;53.238;5.686;2023-03-23T02:50:21;13.95;;;7.40;;
56511;SDS011;42408;53.238;5.686;2023-03-23T02:52:49;14.77;;;7.72;;
56511;SDS011;42408;53.238;5.686;2023-03-23T02:55:18;13.80;;;7.53;;
56511;SDS011;42408;53.238;5.686;2023-03-23T02:57:45;12.20;;;7.43;;
56511;SDS011;42408;53.238;5.686;2023-03-23T03:00:12;12.55;;;6.90;;
56511;SDS011;42408;53.238;5.686;2023-03-23T03:02:44;11.60;;;7.05;;
56511;SDS011;42408;53.238;5.686;2023-03-23T03:05:23;12.90;;;7.32;;
56511;SDS011;42408;53.238;5.686;2023-03-23T03:08:10;12.57;;;7.25;;
56511;SDS011;42408;53.238;5.686;2023-03-23T03:10:59;10.02;;;6.43;;
56511;SDS011;42408;53.238;5.686;2023-03-23T03:13:46;11.68;;;6.70;;
56511;SDS011;42408;53.238;5.686;2023-03-23T03:19:10;11.85;;;5.95;;
56511;SDS011;42408;53.238;5.686;2023-03-23T03:21:54;11.73;;;6.85;;
56511;SDS011;42408;53.238;5.686;2023-03-23T03:24:23;11.38;;;6.18;;
56511;SDS011;42408;53.238;5.686;2023-03-23T03:26:52;12.50;;;6.00;;
56511;SDS011;42408;53.238;5.686;2023-03-23T03:29:44;11.90;;;5.55;;
56511;SDS011;42408;53.238;5.686;2023-03-23T03:32:12;9.77;;;5.38;;
56511;SDS011;42408;53.238;5.686;2023-03-23T03:34:42;12.25;;;5.22;;
56511;SDS011;42408;53.238;5.686;2023-03-23T03:37:07;10.27;;;4.17;;
56511;SDS011;42408;53.238;5.686;2023-03-23T03:39:36;10.18;;;3.60;;
56511;SDS011;42408;53.238;5.686;2023-03-23T03:42:03;8.90;;;3.78;;
56511;SDS011;42408;53.238;5.686;2023-03-23T03:44:30;10.30;;;3.15;;
56511;SDS011;42408;53.238;5.686;2023-03-23T03:46:56;8.88;;;3.38;;
56511;SDS011;42408;53.238;5.686;2023-03-23T03:49:21;8.53;;;3.20;;
56511;SDS011;42408;53.238;5.686;2023-03-23T03:51:47;10.00;;;3.20;;
56511;SDS011;42408;53.238;5.686;2023-03-23T03:54:13;13.03;;;3.47;;
56511;SDS011;42408;53.238;5.686;2023-03-23T03:56:40;12.00;;;5.82;;
56511;SDS011;42408;53.238;5.686;2023-03-23T03:59:07;11.50;;;4.20;;
56511;SDS011;42408;53.238;5.686;2023-03-23T04:01:34;7.15;;;3.30;;
56511;SDS011;42408;53.238;5.686;2023-03-23T04:04:02;10.20;;;4.18;;
56511;SDS011;42408;53.238;5.686;2023-03-23T04:06:29;11.38;;;4.22;;
56511;SDS011;42408;53.238;5.686;2023-03-23T04:08:58;7.27;;;3.80;;
56511;SDS011;42408;53.238;5.686;2023-03-23T04:11:26;8.68;;;3.45;;
56511;SDS011;42408;53.238;5.686;2023-03-23T04:13:51;8.97;;;3.70;;
56511;SDS011;42408;53.238;5.686;2023-03-23T04:16:17;8.57;;;3.50;;
56511;SDS011;42408;53.238;5.686;2023-03-23T04:18:43;16.35;;;3.95;;
56511;SDS011;42408;53.238;5.686;2023-03-23T04:21:09;11.37;;;4.23;;
56511;SDS011;42408;53.238;5.686;2023-03-23T04:23:35;14.53;;;4.03;;
56511;SDS011;42408;53.238;5.686;2023-03-23T04:26:02;10.13;;;3.70;;
56511;SDS011;42408;53.238;5.686;2023-03-23T04:28:29;11.63;;;3.72;;
56511;SDS011;42408;53.238;5.686;2023-03-23T04:30:58;13.52;;;3.88;;
56511;SDS011;42408;53.238;5.686;2023-03-23T04:33:26;12.85;;;3.90;;
56511;SDS011;42408;53.238;5.686;2023-03-23T04:35:53;11.43;;;4.20;;
56511;SDS011;42408;53.238;5.686;2023-03-23T04:38:22;17.15;;;4.53;;
56511;SDS011;42408;53.238;5.686;2023-03-23T04:40:49;16.65;;;4.35;;
56511;SDS011;42408;53.238;5.686;2023-03-23T04:43:17;18.40;;;4.20;;
56511;SDS011;42408;53.238;5.686;2023-03-23T04:45:46;16.85;;;4.85;;
56511;SDS011;42408;53.238;5.686;2023-03-23T04:48:17;17.52;;;4.32;;
56511;SDS011;42408;53.238;5.686;2023-03-23T04:50:44;15.50;;;5.63;;
56511;SDS011;42408;53.238;5.686;2023-03-23T04:53:10;16.50;;;4.60;;
56511;SDS011;42408;53.238;5.686;2023-03-23T04:55:36;17.23;;;4.37;;
56511;SDS011;42408;53.238;5.686;2023-03-23T04:58:05;14.45;;;5.25;;
56511;SDS011;42408;53.238;5.686;2023-03-23T05:00:34;23.27;;;5.90;;
56511;SDS011;42408;53.238;5.686;2023-03-23T05:03:01;21.98;;;4.65;;
56511;SDS011;42408;53.238;5.686;2023-03-23T05:05:27;21.40;;;6.00;;
56511;SDS011;42408;53.238;5.686;2023-03-23T05:07:55;18.63;;;6.38;;
56511;SDS011;42408;53.238;5.686;2023-03-23T05:10:21;21.48;;;4.45;;
56511;SDS011;42408;53.238;5.686;2023-03-23T05:12:48;18.70;;;5.30;;
56511;SDS011;42408;53.238;5.686;2023-03-23T05:15:14;18.97;;;5.30;;
56511;SDS011;42408;53.238;5.686;2023-03-23T05:17:41;16.63;;;5.63;;
56511;SDS011;42408;53.238;5.686;2023-03-23T05:20:11;22.67;;;5.78;;
56511;SDS011;42408;53.238;5.686;2023-03-23T05:22:39;16.60;;;6.45;;
56511;SDS011;42408;53.238;5.686;2023-03-23T05:25:05;22.27;;;5.43;;
56511;SDS011;42408;53.238;5.686;2023-03-23T05:27:34;25.70;;;6.70;;
56511;SDS011;42408;53.238;5.686;2023-03-23T05:30:00;20.77;;;5.82;;
56511;SDS011;42408;53.238;5.686;2023-03-23T05:32:26;18.02;;;5.85;;
56511;SDS011;42408;53.238;5.686;2023-03-23T05:34:59;26.80;;;6.38;;
56511;SDS011;42408;53.238;5.686;2023-03-23T05:37:26;23.15;;;6.20;;
56511;SDS011;42408;53.238;5.686;2023-03-23T05:39:57;19.15;;;5.75;;
56511;SDS011;42408;53.238;5.686;2023-03-23T05:42:26;21.88;;;5.47;;
56511;SDS011;42408;53.238;5.686;2023-03-23T05:44:52;18.40;;;5.35;;
56511;SDS011;42408;53.238;5.686;2023-03-23T05:47:18;18.33;;;5.00;;
56511;SDS011;42408;53.238;5.686;2023-03-23T05:49:44;16.40;;;6.43;;
56511;SDS011;42408;53.238;5.686;2023-03-23T05:52:09;17.97;;;5.07;;
56511;SDS011;42408;53.238;5.686;2023-03-23T05:54:35;16.37;;;4.77;;
56511;SDS011;42408;53.238;5.686;2023-03-23T05:57:02;15.85;;;4.43;;
56511;SDS011;42408;53.238;5.686;2023-03-23T05:59:27;12.65;;;3.80;;
56511;SDS011;42408;53.238;5.686;2023-03-23T06:01:53;10.43;;;2.90;;
56511;SDS011;42408;53.238;5.686;2023-03-23T06:04:20;10.27;;;2.65;;
56511;SDS011;42408;53.238;5.686;2023-03-23T06:06:49;8.93;;;2.95;;
56511;SDS011;42408;53.238;5.686;2023-03-23T06:09:17;8.80;;;2.63;;
56511;SDS011;42408;53.238;5.686;2023-03-23T06:11:43;9.68;;;2.67;;
56511;SDS011;42408;53.238;5.686;2023-03-23T06:14:09;8.90;;;2.22;;
56511;SDS011;42408;53.238;5.686;2023-03-23T06:16:35;9.47;;;2.53;;
56511;SDS011;42408;53.238;5.686;2023-03-23T06:19:01;8.87;;;3.13;;
56511;SDS011;42408;53.238;5.686;2023-03-23T06:21:29;10.95;;;2.95;;
56511;SDS011;42408;53.238;5.686;2023-03-23T06:23:55;7.10;;;2.58;;
56511;SDS011;42408;53.238;5.686;2023-03-23T06:26:21;10.80;;;3.30;;
56511;SDS011;42408;53.238;5.686;2023-03-23T06:28:50;13.35;;;3.72;;
56511;SDS011;42408;53.238;5.686;2023-03-23T06:31:16;13.73;;;3.50;;
56511;SDS011;42408;53.238;5.686;2023-03-23T06:33:44;14.30;;;2.97;;
56511;SDS011;42408;53.238;5.686;2023-03-23T06:36:10;15.73;;;4.30;;
56511;SDS011;42408;53.238;5.686;2023-03-23T06:38:37;13.30;;;4.32;;
56511;SDS011;42408;53.238;5.686;2023-03-23T06:41:02;19.10;;;6.53;;
56511;SDS011;42408;53.238;5.686;2023-03-23T06:45:57;18.95;;;5.25;;
56511;SDS011;42408;53.238;5.686;2023-03-23T06:48:23;21.77;;;6.18;;
56511;SDS011;42408;53.238;5.686;2023-03-23T06:50:49;21.03;;;5.33;;
56511;SDS011;42408;53.238;5.686;2023-03-23T06:53:15;18.57;;;5.87;;
56511;SDS011;42408;53.238;5.686;2023-03-23T06:55:42;19.30;;;6.50;;
56511;SDS011;42408;53.238;5.686;2023-03-23T07:00:35;20.85;;;6.55;;
56511;SDS011;42408;53.238;5.686;2023-03-23T07:03:01;25.97;;;6.50;;
56511;SDS011;42408;53.238;5.686;2023-03-23T07:05:26;27.03;;;6.67;;
56511;SDS011;42408;53.238;5.686;2023-03-23T07:07:52;28.30;;;7.18;;
56511;SDS011;42408;53.238;5.686;2023-03-23T07:10:18;26.63;;;6.83;;
56511;SDS011;42408;53.238;5.686;2023-03-23T07:12:44;25.67;;;7.00;;
56511;SDS011;42408;53.238;5.686;2023-03-23T07:15:10;34.95;;;8.25;;
56511;SDS011;42408;53.238;5.686;2023-03-23T07:20:03;30.67;;;7.22;;
56511;SDS011;42408;53.238;5.686;2023-03-23T07:22:29;28.27;;;8.55;;
56511;SDS011;42408;53.238;5.686;2023-03-23T07:24:55;27.50;;;7.87;;
56511;SDS011;42408;53.238;5.686;2023-03-23T07:27:21;26.03;;;7.47;;
56511;SDS011;42408;53.238;5.686;2023-03-23T07:29:47;33.27;;;7.33;;
56511;SDS011;42408;53.238;5.686;2023-03-23T07:32:12;25.67;;;5.77;;
56511;SDS011;42408;53.238;5.686;2023-03-23T07:34:38;26.10;;;7.30;;
56511;SDS011;42408;53.238;5.686;2023-03-23T07:37:05;25.40;;;6.32;;
56511;SDS011;42408;53.238;5.686;2023-03-23T07:39:31;22.50;;;6.80;;
56511;SDS011;42408;53.238;5.686;2023-03-23T07:41:58;27.80;;;7.30;;
56511;SDS011;42408;53.238;5.686;2023-03-23T07:44:24;20.50;;;6.60;;
56511;SDS011;42408;53.238;5.686;2023-03-23T07:46:50;29.58;;;6.97;;
56511;SDS011;42408;53.238;5.686;2023-03-23T07:49:16;30.25;;;6.65;;
56511;SDS011;42408;53.238;5.686;2023-03-23T07:51:42;30.70;;;7.57;;
56511;SDS011;42408;53.238;5.686;2023-03-23T07:54:08;24.33;;;6.60;;
56511;SDS011;42408;53.238;5.686;2023-03-23T07:56:34;23.37;;;6.10;;
56511;SDS011;42408;53.238;5.686;2023-03-23T08:01:27;25.73;;;6.85;;
56511;SDS011;42408;53.238;5.686;2023-03-23T08:03:54;23.33;;;5.97;;
56511;SDS011;42408;53.238;5.686;2023-03-23T08:06:22;20.67;;;6.80;;
56511;SDS011;42408;53.238;5.686;2023-03-23T08:08:51;23.25;;;7.32;;
56511;SDS011;42408;53.238;5.686;2023-03-23T08:11:18;26.35;;;6.80;;
56511;SDS011;42408;53.238;5.686;2023-03-23T08:13:44;20.60;;;7.07;;
56511;SDS011;42408;53.238;5.686;2023-03-23T08:16:10;26.42;;;6.47;;
56511;SDS011;42408;53.238;5.686;2023-03-23T08:18:36;23.42;;;5.90;;
56511;SDS011;42408;53.238;5.686;2023-03-23T08:21:04;26.45;;;6.95;;
56511;SDS011;42408;53.238;5.686;2023-03-23T08:23:31;32.47;;;7.03;;
56511;SDS011;42408;53.238;5.686;2023-03-23T08:25:58;27.95;;;7.13;;
56511;SDS011;42408;53.238;5.686;2023-03-23T08:30:50;25.50;;;6.90;;
56511;SDS011;42408;53.238;5.686;2023-03-23T08:33:16;27.77;;;5.90;;
56511;SDS011;42408;53.238;5.686;2023-03-23T08:35:42;21.52;;;5.60;;
56511;SDS011;42408;53.238;5.686;2023-03-23T08:38:09;26.48;;;6.82;;
56511;SDS011;42408;53.238;5.686;2023-03-23T08:40:36;23.20;;;6.22;;
56511;SDS011;42408;53.238;5.686;2023-03-23T08:43:04;27.98;;;5.97;;
56511;SDS011;42408;53.238;5.686;2023-03-23T08:45:30;23.48;;;6.47;;
56511;SDS011;42408;53.238;5.686;2023-03-23T08:47:56;23.55;;;7.03;;
56511;SDS011;42408;53.238;5.686;2023-03-23T08:50:24;23.17;;;5.80;;
56511;SDS011;42408;53.238;5.686;2023-03-23T08:52:52;26.02;;;6.85;;
56511;SDS011;42408;53.238;5.686;2023-03-23T08:55:19;25.92;;;7.10;;
56511;SDS011;42408;53.238;5.686;2023-03-23T08:57:46;27.48;;;7.20;;
56511;SDS011;42408;53.238;5.686;2023-03-23T09:00:16;22.40;;;6.90;;
56511;SDS011;42408;53.238;5.686;2023-03-23T09:02:45;22.20;;;6.60;;
56511;SDS011;42408;53.238;5.686;2023-03-23T09:05:12;23.23;;;6.30;;
56511;SDS011;42408;53.238;5.686;2023-03-23T09:07:40;25.15;;;7.45;;
56511;SDS011;42408;53.238;5.686;2023-03-23T09:10:07;25.98;;;7.28;;
56511;SDS011;42408;53.238;5.686;2023-03-23T09:12:34;23.10;;;6.72;;
56511;SDS011;42408;53.238;5.686;2023-03-23T09:17:33;20.90;;;5.70;;
56511;SDS011;42408;53.238;5.686;2023-03-23T09:20:00;22.58;;;6.95;;
56511;SDS011;42408;53.238;5.686;2023-03-23T09:22:26;27.20;;;7.53;;
56511;SDS011;42408;53.238;5.686;2023-03-23T09:27:18;22.73;;;6.28;;
56511;SDS011;42408;53.238;5.686;2023-03-23T09:29:44;22.60;;;6.43;;
56511;SDS011;42408;53.238;5.686;2023-03-23T09:32:10;30.80;;;7.35;;
56511;SDS011;42408;53.238;5.686;2023-03-23T09:34:38;27.02;;;7.60;;
56511;SDS011;42408;53.238;5.686;2023-03-23T09:37:04;20.48;;;6.15;;
56511;SDS011;42408;53.238;5.686;2023-03-23T09:39:30;21.77;;;6.63;;
56511;SDS011;42408;53.238;5.686;2023-03-23T09:47:31;27.13;;;7.15;;
56511;SDS011;42408;53.238;5.686;2023-03-23T09:55:10;20.17;;;6.32;;
56511;SDS011;42408;53.238;5.686;2023-03-23T09:57:56;23.58;;;6.75;;
56511;SDS011;42408;53.238;5.686;2023-03-23T10:03:14;21.98;;;6.78;;
56511;SDS011;42408;53.238;5.686;2023-03-23T10:05:44;19.83;;;6.40;;
56511;SDS011;42408;53.238;5.686;2023-03-23T10:08:16;23.17;;;6.35;;
56511;SDS011;42408;53.238;5.686;2023-03-23T10:16:12;26.70;;;5.95;;
56511;SDS011;42408;53.238;5.686;2023-03-23T10:23:51;25.48;;;6.43;;
56511;SDS011;42408;53.238;5.686;2023-03-23T10:26:31;22.52;;;6.50;;
56511;SDS011;42408;53.238;5.686;2023-03-23T10:29:38;21.80;;;6.88;;
56511;SDS011;42408;53.238;5.686;2023-03-23T10:32:12;19.85;;;6.43;;
56511;SDS011;42408;53.238;5.686;2023-03-23T10:37:23;23.73;;;6.00;;
56511;SDS011;42408;53.238;5.686;2023-03-23T10:39:56;22.77;;;5.38;;
56511;SDS011;42408;53.238;5.686;2023-03-23T10:42:31;21.67;;;5.35;;
56511;SDS011;42408;53.238;5.686;2023-03-23T10:50:58;22.48;;;6.03;;
56511;SDS011;42408;53.238;5.686;2023-03-23T10:53:38;20.83;;;5.57;;
56511;SDS011;42408;53.238;5.686;2023-03-23T10:56:22;23.95;;;6.10;;
56511;SDS011;42408;53.238;5.686;2023-03-23T10:58:50;23.98;;;6.05;;
56511;SDS011;42408;53.238;5.686;2023-03-23T11:01:18;23.23;;;5.38;;
56511;SDS011;42408;53.238;5.686;2023-03-23T11:03:45;16.60;;;6.10;;
56511;SDS011;42408;53.238;5.686;2023-03-23T11:06:20;20.73;;;5.43;;
56511;SDS011;42408;53.238;5.686;2023-03-23T11:09:11;18.90;;;5.80;;
56511;SDS011;42408;53.238;5.686;2023-03-23T11:11:50;22.30;;;5.65;;
56511;SDS011;42408;53.238;5.686;2023-03-23T11:14:28;17.85;;;5.40;;
56511;SDS011;42408;53.238;5.686;2023-03-23T11:16:59;15.60;;;5.10;;
56511;SDS011;42408;53.238;5.686;2023-03-23T11:19:33;17.08;;;4.85;;
56511;SDS011;42408;53.238;5.686;2023-03-23T11:24:31;19.15;;;5.75;;
56511;SDS011;42408;53.238;5.686;2023-03-23T11:26:59;16.73;;;4.53;;
56511;SDS011;42408;53.238;5.686;2023-03-23T11:29:26;16.27;;;4.60;;
56511;SDS011;42408;53.238;5.686;2023-03-23T11:32:01;13.98;;;4.43;;
56511;SDS011;42408;53.238;5.686;2023-03-23T11:34:35;18.83;;;4.75;;
56511;SDS011;42408;53.238;5.686;2023-03-23T11:37:10;27.52;;;5.80;;
56511;SDS011;42408;53.238;5.686;2023-03-23T11:42:27;13.73;;;4.50;;
56511;SDS011;42408;53.238;5.686;2023-03-23T11:45:13;16.67;;;4.50;;
56511;SDS011;42408;53.238;5.686;2023-03-23T11:47:41;17.52;;;4.40;;
56511;SDS011;42408;53.238;5.686;2023-03-23T11:56:23;15.27;;;4.50;;
56511;SDS011;42408;53.238;5.686;2023-03-23T11:58:50;15.65;;;4.22;;
56511;SDS011;42408;53.238;5.686;2023-03-23T12:01:40;14.60;;;4.78;;
56511;SDS011;42408;53.238;5.686;2023-03-23T12:04:33;15.80;;;4.47;;
56511;SDS011;42408;53.238;5.686;2023-03-23T12:18:15;15.10;;;4.43;;
56511;SDS011;42408;53.238;5.686;2023-03-23T12:31:36;13.43;;;4.43;;
56511;SDS011;42408;53.238;5.686;2023-03-23T12:48:29;20.17;;;5.60;;
56511;SDS011;42408;53.238;5.686;2023-03-23T12:51:27;18.25;;;4.45;;
56511;SDS011;42408;53.238;5.686;2023-03-23T12:59:37;21.83;;;5.30;;
56511;SDS011;42408;53.238;5.686;2023-03-23T13:02:22;17.63;;;4.63;;
56511;SDS011;42408;53.238;5.686;2023-03-23T13:05:24;15.93;;;5.60;;
56511;SDS011;42408;53.238;5.686;2023-03-23T13:08:03;19.25;;;4.63;;
56511;SDS011;42408;53.238;5.686;2023-03-23T13:10:41;20.13;;;5.20;;
56511;SDS011;42408;53.238;5.686;2023-03-23T13:13:19;17.10;;;5.60;;
56511;SDS011;42408;53.238;5.686;2023-03-23T13:24:10;14.95;;;5.18;;
56511;SDS011;42408;53.238;5.686;2023-03-23T13:26:40;19.73;;;5.43;;
56511;SDS011;42408;53.238;5.686;2023-03-23T13:29:18;18.00;;;5.47;;
56511;SDS011;42408;53.238;5.686;2023-03-23T13:31:45;15.27;;;4.38;;
56511;SDS011;42408;53.238;5.686;2023-03-23T13:37:06;20.63;;;4.72;;
56511;SDS011;42408;53.238;5.686;2023-03-23T13:39:35;18.17;;;4.82;;
56511;SDS011;42408;53.238;5.686;2023-03-23T13:49:51;20.02;;;5.28;;
56511;SDS011;42408;53.238;5.686;2023-03-23T13:57:54;13.40;;;4.28;;
56511;SDS011;42408;53.238;5.686;2023-03-23T14:00:46;13.95;;;4.03;;
56511;SDS011;42408;53.238;5.686;2023-03-23T14:03:36;13.93;;;4.70;;
56511;SDS011;42408;53.238;5.686;2023-03-23T14:06:14;13.38;;;3.72;;
56511;SDS011;42408;53.238;5.686;2023-03-23T14:08:48;16.58;;;4.68;;
56511;SDS011;42408;53.238;5.686;2023-03-23T14:11:21;14.32;;;4.50;;
56511;SDS011;42408;53.238;5.686;2023-03-23T14:21:49;12.90;;;3.35;;
56511;SDS011;42408;53.238;5.686;2023-03-23T14:24:20;14.98;;;4.20;;
56511;SDS011;42408;53.238;5.686;2023-03-23T14:26:48;19.95;;;4.45;;
56511;SDS011;42408;53.238;5.686;2023-03-23T14:29:17;15.45;;;4.07;;
56511;SDS011;42408;53.238;5.686;2023-03-23T14:34:18;11.70;;;3.40;;
56511;SDS011;42408;53.238;5.686;2023-03-23T14:36:45;14.70;;;4.03;;
56511;SDS011;42408;53.238;5.686;2023-03-23T14:41:37;16.17;;;3.27;;
56511;SDS011;42408;53.238;5.686;2023-03-23T14:44:03;14.60;;;4.38;;
56511;SDS011;42408;53.238;5.686;2023-03-23T14:46:32;15.02;;;3.60;;
56511;SDS011;42408;53.238;5.686;2023-03-23T14:49:00;14.90;;;3.97;;
56511;SDS011;42408;53.238;5.686;2023-03-23T14:51:28;14.57;;;3.65;;
56511;SDS011;42408;53.238;5.686;2023-03-23T14:53:54;12.88;;;4.03;;
56511;SDS011;42408;53.238;5.686;2023-03-23T14:56:20;12.50;;;4.53;;
56511;SDS011;42408;53.238;5.686;2023-03-23T14:58:51;14.23;;;3.58;;
56511;SDS011;42408;53.238;5.686;2023-03-23T15:01:18;14.05;;;4.10;;
56511;SDS011;42408;53.238;5.686;2023-03-23T15:03:52;15.65;;;4.30;;
56511;SDS011;42408;53.238;5.686;2023-03-23T15:06:19;12.23;;;3.35;;
56511;SDS011;42408;53.238;5.686;2023-03-23T15:08:47;18.13;;;4.07;;
56511;SDS011;42408;53.238;5.686;2023-03-23T15:13:44;19.95;;;4.15;;
56511;SDS011;42408;53.238;5.686;2023-03-23T15:16:19;13.52;;;3.25;;
56511;SDS011;42408;53.238;5.686;2023-03-23T15:21:31;12.80;;;4.20;;
56511;SDS011;42408;53.238;5.686;2023-03-23T15:24:02;14.32;;;3.95;;
56511;SDS011;42408;53.238;5.686;2023-03-23T15:26:43;14.10;;;4.13;;
56511;SDS011;42408;53.238;5.686;2023-03-23T15:31:43;16.35;;;4.30;;
56511;SDS011;42408;53.238;5.686;2023-03-23T15:34:19;14.90;;;4.80;;
56511;SDS011;42408;53.238;5.686;2023-03-23T15:36:58;18.98;;;4.75;;
56511;SDS011;42408;53.238;5.686;2023-03-23T15:39:26;18.83;;;5.00;;
56511;SDS011;42408;53.238;5.686;2023-03-23T15:41:53;16.63;;;4.45;;
56511;SDS011;42408;53.238;5.686;2023-03-23T15:44:20;20.45;;;4.90;;
56511;SDS011;42408;53.238;5.686;2023-03-23T15:47:10;16.45;;;4.78;;
56511;SDS011;42408;53.238;5.686;2023-03-23T15:49:37;19.95;;;4.75;;
56511;SDS011;42408;53.238;5.686;2023-03-23T15:52:03;17.70;;;4.67;;
56511;SDS011;42408;53.238;5.686;2023-03-23T15:54:30;17.73;;;4.43;;
56511;SDS011;42408;53.238;5.686;2023-03-23T15:56:57;18.48;;;4.55;;
56511;SDS011;42408;53.238;5.686;2023-03-23T15:59:22;17.10;;;4.70;;
56511;SDS011;42408;53.238;5.686;2023-03-23T16:01:48;16.90;;;5.70;;
56511;SDS011;42408;53.238;5.686;2023-03-23T16:04:15;20.70;;;5.43;;
56511;SDS011;42408;53.238;5.686;2023-03-23T16:06:43;24.20;;;5.43;;
56511;SDS011;42408;53.238;5.686;2023-03-23T16:11:39;20.05;;;5.70;;
56511;SDS011;42408;53.238;5.686;2023-03-23T16:16:42;22.23;;;5.43;;
56511;SDS011;42408;53.238;5.686;2023-03-23T16:19:11;24.17;;;6.03;;
56511;SDS011;42408;53.238;5.686;2023-03-23T16:21:37;17.13;;;5.80;;
56511;SDS011;42408;53.238;5.686;2023-03-23T16:24:03;16.73;;;5.57;;
56511;SDS011;42408;53.238;5.686;2023-03-23T16:26:29;21.03;;;6.20;;
56511;SDS011;42408;53.238;5.686;2023-03-23T16:28:55;21.97;;;5.83;;
56511;SDS011;42408;53.238;5.686;2023-03-23T16:31:21;19.90;;;6.47;;
56511;SDS011;42408;53.238;5.686;2023-03-23T16:33:46;21.33;;;6.00;;
56511;SDS011;42408;53.238;5.686;2023-03-23T16:36:12;20.27;;;5.57;;
56511;SDS011;42408;53.238;5.686;2023-03-23T16:38:39;28.63;;;6.95;;
56511;SDS011;42408;53.238;5.686;2023-03-23T16:41:05;19.48;;;5.45;;
56511;SDS011;42408;53.238;5.686;2023-03-23T16:43:32;19.63;;;5.57;;
56511;SDS011;42408;53.238;5.686;2023-03-23T16:45:58;21.67;;;5.82;;
56511;SDS011;42408;53.238;5.686;2023-03-23T16:48:23;23.20;;;6.80;;
56511;SDS011;42408;53.238;5.686;2023-03-23T16:50:51;26.73;;;6.35;;
56511;SDS011;42408;53.238;5.686;2023-03-23T16:53:18;24.20;;;6.75;;
56511;SDS011;42408;53.238;5.686;2023-03-23T16:55:44;22.35;;;6.18;;
56511;SDS011;42408;53.238;5.686;2023-03-23T16:58:12;21.67;;;6.53;;
56511;SDS011;42408;53.238;5.686;2023-03-23T17:00:39;18.75;;;5.53;;
56511;SDS011;42408;53.238;5.686;2023-03-23T17:03:05;20.65;;;5.90;;
56511;SDS011;42408;53.238;5.686;2023-03-23T17:05:31;19.20;;;5.80;;
56511;SDS011;42408;53.238;5.686;2023-03-23T17:07:59;20.70;;;5.45;;
56511;SDS011;42408;53.238;5.686;2023-03-23T17:10:25;19.80;;;5.07;;
56511;SDS011;42408;53.238;5.686;2023-03-23T17:12:52;21.00;;;5.95;;
56511;SDS011;42408;53.238;5.686;2023-03-23T17:15:19;26.23;;;6.35;;
56511;SDS011;42408;53.238;5.686;2023-03-23T17:17:46;23.63;;;6.28;;
56511;SDS011;42408;53.238;5.686;2023-03-23T17:20:11;25.13;;;6.10;;
56511;SDS011;42408;53.238;5.686;2023-03-23T17:22:38;23.55;;;5.95;;
56511;SDS011;42408;53.238;5.686;2023-03-23T17:27:31;17.48;;;5.43;;
56511;SDS011;42408;53.238;5.686;2023-03-23T17:29:57;18.23;;;5.03;;
56511;SDS011;42408;53.238;5.686;2023-03-23T17:32:22;16.83;;;5.77;;
56511;SDS011;42408;53.238;5.686;2023-03-23T17:34:49;18.92;;;5.32;;
56511;SDS011;42408;53.238;5.686;2023-03-23T17:37:15;19.17;;;5.33;;
56511;SDS011;42408;53.238;5.686;2023-03-23T17:39:41;21.90;;;5.57;;
56511;SDS011;42408;53.238;5.686;2023-03-23T17:42:07;20.97;;;6.17;;
56511;SDS011;42408;53.238;5.686;2023-03-23T17:44:32;19.03;;;6.27;;
56511;SDS011;42408;53.238;5.686;2023-03-23T17:46:58;19.53;;;5.63;;
56511;SDS011;42408;53.238;5.686;2023-03-23T17:49:27;23.33;;;6.30;;